Time;durP1;ratioP1;P1;durP2;ratioP2;P2;SDS_P1;SDS_P2;PMS_P1;PMS_P2;Temp;Humidity;BMP_temperature;BMP_pressure;BME280_temperature;BME280_humidity;BME280_pressure;Samples;Min_cycle;Max_cycle;Signal;HPM_P1;HPM_P2
2022/06/10 00:01:11;;;;;;;12.07;7.93;;;13.20;99.90;;;;;;4992307;28;20282;-78
2022/06/10 00:03:37;;;;;;;13.83;8.70;;;13.10;99.90;;;;;;4993791;28;20181;-78
2022/06/10 00:06:05;;;;;;;11.33;8.43;;;13.10;99.90;;;;;;4992459;28;20707;-78
2022/06/10 00:08:34;;;;;;;15.50;9.07;;;13.10;99.90;;;;;;4992303;28;20176;-78
2022/06/10 00:11:01;;;;;;;19.10;8.80;;;13.10;99.90;;;;;;4992127;28;20206;-78
2022/06/10 00:13:30;;;;;;;10.93;7.83;;;13.00;99.90;;;;;;4992556;28;20208;-78
2022/06/10 00:15:56;;;;;;;19.40;9.33;;;13.10;99.90;;;;;;4992365;28;20634;-79
2022/06/10 00:18:25;;;;;;;21.60;9.47;;;13.20;99.90;;;;;;4994113;28;20177;-79
2022/06/10 00:20:51;;;;;;;12.83;8.90;;;13.10;99.90;;;;;;4992922;28;20182;-78
2022/06/10 00:23:17;;;;;;;20.17;11.60;;;13.00;99.90;;;;;;4991723;28;20180;-78
2022/06/10 00:25:45;;;;;;;16.67;10.10;;;13.10;99.90;;;;;;4991789;28;20186;-78
2022/06/10 00:28:11;;;;;;;18.37;10.30;;;13.00;99.90;;;;;;4992538;28;20178;-78
2022/06/10 00:30:38;;;;;;;15.03;10.80;;;13.10;99.90;;;;;;4992746;28;20618;-78
2022/06/10 00:33:05;;;;;;;15.60;9.93;;;13.10;99.90;;;;;;4991408;28;20536;-78
2022/06/10 00:35:31;;;;;;;17.33;10.27;;;12.90;99.90;;;;;;4992497;28;20173;-78
2022/06/10 00:37:57;;;;;;;22.00;9.60;;;12.90;99.90;;;;;;4992102;28;20195;-78
2022/06/10 00:40:26;;;;;;;13.87;9.47;;;12.80;99.90;;;;;;4992079;28;20223;-78
2022/06/10 00:42:56;;;;;;;13.07;9.30;;;12.90;99.90;;;;;;4994583;28;20198;-78
2022/06/10 00:45:59;;;;;;;20.57;11.90;;;12.90;99.90;;;;;;4996973;28;20650;-78
2022/06/10 00:48:40;;;;;;;18.73;12.20;;;12.80;99.90;;;;;;4996699;28;20185;-79
2022/06/10 00:51:32;;;;;;;14.53;11.07;;;12.90;99.90;;;;;;4996285;28;20221;-78
2022/06/10 00:54:38;;;;;;;21.57;11.07;;;12.80;99.90;;;;;;4977887;28;20290;-78
2022/06/10 00:57:10;;;;;;;16.60;10.10;;;12.90;99.90;;;;;;4981056;28;20192;-78
2022/06/10 00:59:42;;;;;;;22.53;10.60;;;12.90;99.90;;;;;;4996229;28;20213;-78
2022/06/10 01:02:11;;;;;;;17.80;10.70;;;12.80;99.90;;;;;;4996008;28;20279;-78
2022/06/10 01:04:40;;;;;;;22.63;11.97;;;12.80;99.90;;;;;;4996359;28;20172;-78
2022/06/10 01:07:08;;;;;;;25.73;12.73;;;12.70;99.90;;;;;;4996594;28;20211;-78
2022/06/10 01:09:35;;;;;;;18.47;13.00;;;12.70;99.90;;;;;;4996511;28;20186;-78
2022/06/10 01:12:13;;;;;;;20.63;13.17;;;12.70;99.90;;;;;;4995947;28;20203;-78
2022/06/10 01:15:00;;;;;;;20.80;12.57;;;12.70;99.90;;;;;;4996561;28;20218;-78
2022/06/10 01:17:32;;;;;;;19.77;12.40;;;12.70;99.90;;;;;;4995259;28;20178;-78
2022/06/10 01:19:57;;;;;;;19.80;12.10;;;12.70;99.90;;;;;;4996039;28;20235;-78
2022/06/10 01:22:32;;;;;;;17.03;11.60;;;12.60;99.90;;;;;;4995556;28;20660;-78
2022/06/10 01:25:19;;;;;;;16.07;11.40;;;12.60;99.90;;;;;;4995709;28;20269;-78
2022/06/10 01:28:12;;;;;;;20.17;10.90;;;12.60;99.90;;;;;;4995718;28;20307;-78
2022/06/10 01:30:56;;;;;;;23.50;11.80;;;12.50;99.90;;;;;;4995687;28;20198;-78
2022/06/10 01:33:40;;;;;;;18.17;11.70;;;12.50;99.90;;;;;;4995299;28;20273;-78
2022/06/10 01:36:08;;;;;;;23.47;13.03;;;12.40;99.90;;;;;;4995610;28;20552;-78
2022/06/10 01:39:08;;;;;;;20.70;11.90;;;12.40;99.90;;;;;;4995734;28;20231;-78
2022/06/10 01:41:51;;;;;;;20.37;11.90;;;12.40;99.90;;;;;;4995490;28;20202;-78
2022/06/10 01:44:38;;;;;;;19.00;12.10;;;12.40;99.90;;;;;;4995791;28;20183;-78
2022/06/10 01:47:18;;;;;;;14.00;10.63;;;12.50;99.90;;;;;;4995750;28;20201;-78
2022/06/10 01:50:21;;;;;;;21.67;11.37;;;12.50;99.90;;;;;;4996329;28;20181;-79
2022/06/10 01:53:38;;;;;;;18.00;11.50;;;12.40;99.90;;;;;;4994644;28;20214;-78
2022/06/10 01:56:38;;;;;;;17.03;10.70;;;12.40;99.90;;;;;;4969443;28;20190;-79
2022/06/10 01:59:10;;;;;;;22.63;12.63;;;12.30;99.90;;;;;;4997883;28;20216;-79
2022/06/10 02:01:40;;;;;;;18.70;12.43;;;12.20;99.90;;;;;;4996787;28;20262;-79
2022/06/10 02:04:15;;;;;;;16.27;11.73;;;12.30;99.90;;;;;;4997314;28;20269;-79
2022/06/10 02:07:14;;;;;;;27.83;13.60;;;12.20;99.90;;;;;;4997475;28;20299;-79
2022/06/10 02:09:50;;;;;;;20.77;13.70;;;12.30;99.90;;;;;;4997181;28;20670;-79
2022/06/10 02:12:25;;;;;;;24.07;14.40;;;12.20;99.90;;;;;;4996908;28;20285;-79
2022/06/10 02:14:57;;;;;;;22.30;13.50;;;12.20;99.90;;;;;;4996955;28;20177;-79
2022/06/10 02:17:25;;;;;;;21.67;12.20;;;12.20;99.90;;;;;;4996515;28;20641;-78
2022/06/10 02:19:56;;;;;;;16.67;12.03;;;12.10;99.90;;;;;;4996635;28;20607;-78
2022/06/10 02:22:37;;;;;;;17.37;11.03;;;12.00;99.90;;;;;;4996899;28;20230;-78
2022/06/10 02:25:26;;;;;;;20.53;11.83;;;12.00;99.90;;;;;;4997184;28;20611;-78
2022/06/10 02:27:58;;;;;;;24.87;13.80;;;12.20;99.90;;;;;;4997136;28;20207;-79
2022/06/10 02:30:32;;;;;;;29.00;13.10;;;12.10;99.90;;;;;;4996456;28;20351;-79
2022/06/10 02:32:58;;;;;;;22.47;13.20;;;12.10;99.90;;;;;;4996596;28;20191;-79
2022/06/10 02:35:29;;;;;;;21.87;13.50;;;12.00;99.90;;;;;;4996979;28;20202;-79
2022/06/10 02:38:13;;;;;;;16.70;11.27;;;12.00;99.90;;;;;;4996627;28;20230;-79
2022/06/10 02:40:42;;;;;;;20.23;10.57;;;12.00;99.90;;;;;;4995957;28;20189;-79
2022/06/10 02:43:27;;;;;;;23.07;11.63;;;11.80;99.90;;;;;;4995411;28;20641;-79
2022/06/10 02:46:00;;;;;;;22.43;12.10;;;11.80;99.90;;;;;;4995793;28;20186;-79
2022/06/10 02:48:44;;;;;;;20.60;12.03;;;11.70;99.90;;;;;;4995190;28;20212;-79
2022/06/10 02:51:10;;;;;;;22.73;12.57;;;11.70;99.90;;;;;;4994645;28;20702;-79
2022/06/10 02:53:36;;;;;;;25.87;13.70;;;11.80;99.90;;;;;;4994965;28;20178;-78
2022/06/10 02:56:14;;;;;;;25.67;14.80;;;11.80;99.90;;;;;;4994691;28;20201;-79
2022/06/10 03:01:30;;;;;;;23.67;13.90;;;11.80;99.90;;;;;;4996655;28;20225;-79
2022/06/10 03:04:16;;;;;;;29.53;15.07;;;11.80;99.90;;;;;;4994409;28;20229;-79
2022/06/10 03:07:19;;;;;;;26.20;15.33;;;11.70;99.90;;;;;;4994254;28;20204;-79
2022/06/10 03:10:06;;;;;;;23.43;14.73;;;11.80;99.90;;;;;;4994749;28;20278;-79
2022/06/10 03:12:51;;;;;;;21.33;13.33;;;11.80;99.90;;;;;;4994266;28;20754;-79
2022/06/10 03:15:35;;;;;;;21.20;13.30;;;11.80;99.90;;;;;;4993982;28;20183;-79
2022/06/10 03:18:18;;;;;;;27.23;15.83;;;11.80;99.90;;;;;;4993334;28;20178;-79
2022/06/10 03:21:32;;;;;;;28.90;16.63;;;11.80;99.90;;;;;;4993709;28;20193;-79
2022/06/10 03:24:41;;;;;;;30.37;17.20;;;11.80;99.90;;;;;;4989674;28;20198;-79
2022/06/10 03:27:18;;;;;;;26.57;15.90;;;11.80;99.90;;;;;;4993829;28;20270;-79
2022/06/10 03:30:12;;;;;;;29.93;16.47;;;11.80;99.90;;;;;;4992723;28;20185;-79
2022/06/10 03:32:48;;;;;;;28.07;16.37;;;11.90;99.90;;;;;;4991896;28;20239;-79
2022/06/10 03:35:23;;;;;;;37.50;17.90;;;11.80;99.90;;;;;;4993812;28;20659;-79
2022/06/10 03:37:50;;;;;;;28.43;17.17;;;12.00;99.90;;;;;;4993237;28;20625;-79
2022/06/10 03:40:28;;;;;;;29.10;15.63;;;12.10;99.90;;;;;;4993224;28;20192;-79
2022/06/10 03:42:56;;;;;;;29.53;16.70;;;12.10;99.90;;;;;;4992655;28;20214;-79
2022/06/10 03:45:47;;;;;;;33.00;18.07;;;12.10;99.90;;;;;;4993047;28;20183;-78
2022/06/10 03:48:19;;;;;;;29.80;18.53;;;12.10;99.90;;;;;;4993011;28;20644;-79
2022/06/10 03:50:47;;;;;;;32.43;17.30;;;12.30;99.90;;;;;;4992971;28;20220;-79
2022/06/10 03:53:19;;;;;;;27.73;16.97;;;12.20;99.90;;;;;;4992979;28;20241;-79
2022/06/10 03:55:45;;;;;;;32.27;18.87;;;12.30;99.90;;;;;;4992957;28;20182;-79
2022/06/10 03:58:11;;;;;;;38.40;18.43;;;12.30;99.90;;;;;;4993148;28;20229;-79
2022/06/10 04:00:37;;;;;;;34.10;18.90;;;12.30;99.90;;;;;;4992805;28;20177;-79
2022/06/10 04:03:03;;;;;;;32.23;19.30;;;12.40;99.90;;;;;;4992098;28;20232;-79
2022/06/10 04:05:29;;;;;;;28.60;18.80;;;12.40;99.90;;;;;;4992591;28;20597;-79
2022/06/10 04:07:55;;;;;;;34.40;18.73;;;12.50;99.90;;;;;;5007071;23;20191;-81
2022/06/10 04:10:25;;;;;;;27.27;18.00;;;12.40;99.90;;;;;;5002425;28;20214;-81
2022/06/10 04:12:50;;;;;;;27.07;17.90;;;12.50;99.90;;;;;;5001491;28;20195;-81
2022/06/10 04:15:17;;;;;;;28.80;16.70;;;12.50;99.90;;;;;;5001069;28;20189;-81
2022/06/10 04:17:45;;;;;;;35.70;17.87;;;12.60;99.90;;;;;;5007567;28;20173;-81
2022/06/10 04:20:20;;;;;;;27.83;17.17;;;12.60;99.90;;;;;;5004336;28;20197;-81
2022/06/10 04:22:46;;;;;;;31.10;17.47;;;12.70;99.90;;;;;;5003514;28;20200;-81
2022/06/10 04:25:12;;;;;;;27.40;16.67;;;12.70;99.90;;;;;;5003247;28;20591;-81
2022/06/10 04:27:38;;;;;;;23.10;14.67;;;12.80;99.90;;;;;;5005507;28;20259;-82
2022/06/10 04:30:06;;;;;;;22.30;15.30;;;12.90;99.90;;;;;;5002995;28;20222;-81
2022/06/10 04:32:32;;;;;;;19.53;12.87;;;13.00;99.90;;;;;;5003705;28;20258;-81
2022/06/10 04:34:58;;;;;;;17.23;11.23;;;13.30;99.90;;;;;;5004647;28;20174;-81
2022/06/10 04:37:25;;;;;;;19.03;10.77;;;13.70;99.90;;;;;;5005978;28;20170;-81
2022/06/10 04:39:52;;;;;;;14.37;8.83;;;14.10;99.90;;;;;;5002465;28;20179;-81
2022/06/10 04:42:18;;;;;;;18.77;8.50;;;14.30;99.90;;;;;;5001476;28;20195;-81
2022/06/10 04:44:44;;;;;;;13.30;8.17;;;14.50;99.90;;;;;;5001763;28;20175;-81
2022/06/10 04:47:10;;;;;;;15.03;8.53;;;14.40;99.90;;;;;;5002101;28;20191;-81
2022/06/10 04:49:36;;;;;;;12.17;6.60;;;14.70;99.90;;;;;;5002303;28;20167;-81
2022/06/10 04:52:03;;;;;;;15.33;7.63;;;14.80;99.90;;;;;;5001631;28;20249;-81
2022/06/10 04:54:29;;;;;;;11.80;6.77;;;15.20;99.90;;;;;;5001077;28;20179;-81
2022/06/10 04:56:54;;;;;;;17.70;6.70;;;15.40;99.90;;;;;;5001846;28;20171;-81
2022/06/10 04:59:20;;;;;;;13.43;6.77;;;15.20;99.90;;;;;;5001358;28;20547;-81
2022/06/10 05:01:46;;;;;;;13.07;6.57;;;15.40;99.90;;;;;;5001745;28;20213;-81
2022/06/10 05:04:11;;;;;;;10.47;6.87;;;15.20;99.90;;;;;;5002065;28;20229;-81
2022/06/10 05:06:37;;;;;;;9.77;6.13;;;15.60;99.90;;;;;;5001733;28;20175;-81
2022/06/10 05:09:03;;;;;;;10.00;6.40;;;15.80;99.90;;;;;;5003296;28;20197;-81
2022/06/10 05:11:28;;;;;;;10.17;6.03;;;15.80;99.90;;;;;;5001999;28;20213;-81
2022/06/10 05:13:54;;;;;;;9.87;6.30;;;15.70;99.90;;;;;;5002645;28;20247;-82
2022/06/10 05:16:20;;;;;;;14.03;6.07;;;15.80;99.90;;;;;;5001991;28;20178;-81
2022/06/10 05:18:46;;;;;;;13.30;6.27;;;15.80;99.90;;;;;;5002207;28;20255;-81
2022/06/10 05:21:12;;;;;;;10.97;5.83;;;16.10;99.90;;;;;;5001464;28;20202;-82
2022/06/10 05:23:38;;;;;;;10.10;5.83;;;16.00;99.90;;;;;;5001953;28;20175;-81
2022/06/10 05:26:03;;;;;;;12.07;5.63;;;16.20;99.90;;;;;;5002720;28;20257;-81
2022/06/10 05:28:29;;;;;;;9.63;5.73;;;16.50;99.90;;;;;;5000650;28;20631;-81
2022/06/10 05:30:55;;;;;;;13.73;6.47;;;16.40;99.90;;;;;;4998634;28;20206;-81
2022/06/10 05:33:20;;;;;;;15.27;6.33;;;16.60;99.90;;;;;;5000248;28;20172;-81
2022/06/10 05:35:47;;;;;;;12.00;6.10;;;16.40;99.90;;;;;;4999793;28;20647;-81
2022/06/10 05:38:14;;;;;;;10.20;5.50;;;16.50;99.90;;;;;;4999837;28;20163;-81
2022/06/10 05:40:41;;;;;;;14.93;5.68;;;17.00;99.90;;;;;;4998007;28;20176;-82
2022/06/10 05:43:06;;;;;;;14.48;5.60;;;17.10;99.90;;;;;;4999286;28;20207;-81
2022/06/10 05:45:32;;;;;;;9.93;4.65;;;17.40;99.90;;;;;;5008933;28;20534;-82
2022/06/10 05:48:00;;;;;;;11.98;5.03;;;17.30;99.90;;;;;;5013549;28;20190;-83
2022/06/10 05:50:28;;;;;;;11.38;5.20;;;17.70;99.90;;;;;;5013089;28;20195;-83
2022/06/10 05:52:55;;;;;;;15.18;4.70;;;18.00;99.90;;;;;;5014007;28;20202;-81
2022/06/10 05:55:22;;;;;;;10.52;4.57;;;18.10;99.90;;;;;;5010924;28;20262;-81
2022/06/10 05:57:50;;;;;;;11.10;4.47;;;18.30;99.90;;;;;;5010204;28;20178;-80
2022/06/10 06:00:21;;;;;;;9.65;3.97;;;18.70;99.90;;;;;;5006215;28;20266;-80
2022/06/10 06:02:46;;;;;;;8.95;4.25;;;18.70;99.90;;;;;;4997180;28;20191;-79
2022/06/10 06:05:12;;;;;;;9.73;4.32;;;18.30;99.90;;;;;;4996429;28;20174;-79
2022/06/10 06:07:40;;;;;;;14.55;4.72;;;17.90;99.90;;;;;;4997494;28;20179;-81
2022/06/10 06:10:06;;;;;;;10.45;4.50;;;17.80;99.90;;;;;;4996943;28;20302;-80
2022/06/10 06:12:32;;;;;;;12.05;5.20;;;17.80;99.90;;;;;;4997263;28;20596;-80
2022/06/10 06:14:58;;;;;;;13.32;5.05;;;17.70;99.90;;;;;;4997135;28;20176;-80
2022/06/10 06:17:23;;;;;;;12.50;4.70;;;17.70;99.90;;;;;;4996873;28;20179;-80
2022/06/10 06:19:49;;;;;;;13.50;4.47;;;17.80;99.90;;;;;;4996821;28;20180;-80
2022/06/10 06:22:16;;;;;;;12.90;4.78;;;17.70;99.90;;;;;;5001191;28;20188;-80
2022/06/10 06:24:42;;;;;;;16.43;4.53;;;17.70;99.90;;;;;;4995404;28;20175;-81
2022/06/10 06:27:13;;;;;;;11.77;4.40;;;17.70;99.90;;;;;;4997162;28;20226;-80
2022/06/10 06:29:39;;;;;;;15.93;4.57;;;17.50;99.90;;;;;;4995628;28;20262;-79
2022/06/10 06:32:05;;;;;;;15.87;4.20;;;17.60;99.90;;;;;;4985609;28;20234;-80
2022/06/10 06:34:31;;;;;;;14.80;4.63;;;17.30;99.90;;;;;;4980233;28;20172;-80
2022/06/10 06:36:57;;;;;;;15.57;4.40;;;17.60;99.90;;;;;;4977766;28;20342;-80
2022/06/10 06:39:24;;;;;;;12.70;4.50;;;17.30;99.90;;;;;;4977329;28;20259;-79
2022/06/10 06:41:51;;;;;;;16.00;4.13;;;17.30;99.90;;;;;;4976571;28;20731;-80
2022/06/10 06:44:17;;;;;;;12.97;3.90;;;17.40;99.90;;;;;;4979084;28;20266;-79
2022/06/10 06:46:44;;;;;;;12.93;4.10;;;17.40;99.90;;;;;;4977837;28;20589;-80
2022/06/10 06:49:19;;;;;;;11.27;3.67;;;17.60;99.90;;;;;;4979723;28;20247;-80
2022/06/10 06:51:45;;;;;;;8.37;3.90;;;17.30;99.90;;;;;;4979870;28;20245;-80
2022/06/10 06:54:11;;;;;;;12.93;4.57;;;17.30;99.90;;;;;;4979171;28;20227;-80
2022/06/10 06:56:37;;;;;;;11.70;4.53;;;17.40;99.90;;;;;;4976940;28;20172;-80
2022/06/10 06:59:05;;;;;;;13.83;4.47;;;17.20;99.90;;;;;;4978549;28;20230;-81
2022/06/10 07:01:31;;;;;;;12.17;3.70;;;17.50;99.90;;;;;;4976757;28;20196;-79
2022/06/10 07:03:57;;;;;;;11.03;4.47;;;17.20;99.90;;;;;;4976843;28;20191;-80
2022/06/10 07:06:23;;;;;;;9.57;3.60;;;17.30;99.90;;;;;;4976634;28;20639;-79
2022/06/10 07:08:50;;;;;;;15.87;4.70;;;17.50;99.90;;;;;;4977134;28;20199;-79
2022/06/10 07:11:16;;;;;;;14.50;4.23;;;17.40;99.90;;;;;;4976491;28;20207;-79
2022/06/10 07:13:41;;;;;;;9.23;4.03;;;17.40;99.90;;;;;;4974466;28;20168;-79
2022/06/10 07:16:08;;;;;;;12.70;3.53;;;17.40;99.90;;;;;;4975861;28;20275;-80
2022/06/10 07:18:34;;;;;;;14.30;4.20;;;17.50;99.90;;;;;;4976765;28;20179;-80
2022/06/10 07:21:00;;;;;;;16.20;4.47;;;17.40;99.90;;;;;;4976876;28;20211;-80
2022/06/10 07:23:27;;;;;;;10.63;3.60;;;17.40;99.90;;;;;;4977131;28;20212;-79
2022/06/10 07:25:53;;;;;;;15.77;4.00;;;17.40;99.90;;;;;;4977360;28;20176;-79
2022/06/10 07:28:20;;;;;;;16.93;4.33;;;17.40;99.90;;;;;;4975373;28;20180;-79
2022/06/10 07:30:46;;;;;;;14.47;4.17;;;17.50;99.90;;;;;;4974031;28;20263;-80
2022/06/10 07:33:12;;;;;;;10.87;3.60;;;17.50;99.90;;;;;;4974296;28;20644;-79
2022/06/10 07:35:38;;;;;;;10.13;3.80;;;17.60;99.90;;;;;;4976999;28;20177;-79
2022/06/10 07:38:04;;;;;;;13.90;4.20;;;17.50;99.90;;;;;;4976880;28;20180;-80
2022/06/10 07:43:24;;;;;;;11.33;3.70;;;17.30;99.90;;;;;;4978391;28;20192;-79
2022/06/10 07:45:50;;;;;;;14.50;4.20;;;17.40;99.90;;;;;;4975998;28;20179;-80
2022/06/10 07:48:17;;;;;;;11.47;3.87;;;17.40;99.90;;;;;;4976201;28;20554;-80
2022/06/10 07:50:44;;;;;;;12.43;3.73;;;17.50;99.90;;;;;;4976694;28;20210;-80
2022/06/10 07:53:10;;;;;;;14.47;3.77;;;17.50;99.90;;;;;;4976958;28;20188;-79
2022/06/10 07:55:37;;;;;;;15.80;4.30;;;17.30;99.90;;;;;;4976621;28;20180;-79
2022/06/10 07:58:04;;;;;;;14.93;4.00;;;17.40;99.90;;;;;;4975743;28;20211;-80
2022/06/10 08:00:30;;;;;;;14.73;3.80;;;17.50;99.90;;;;;;4976065;28;20211;-79
2022/06/10 08:02:57;;;;;;;13.17;4.07;;;17.40;99.90;;;;;;4973726;28;20226;-79
2022/06/10 08:05:23;;;;;;;12.17;3.60;;;17.40;99.90;;;;;;4972549;28;20230;-79
2022/06/10 08:07:50;;;;;;;11.63;3.73;;;17.50;99.90;;;;;;4973803;28;20191;-79
2022/06/10 08:10:29;;;;;;;12.93;4.63;;;17.60;99.90;;;;;;4975912;28;20203;-79
2022/06/10 08:12:55;;;;;;;17.63;4.17;;;17.50;99.90;;;;;;4975448;28;20199;-79
2022/06/10 08:15:22;;;;;;;12.03;4.43;;;17.60;99.90;;;;;;4975047;28;20172;-79
2022/06/10 08:17:50;;;;;;;8.03;3.53;;;17.60;99.90;;;;;;4974831;28;20247;-79
2022/06/10 08:20:22;;;;;;;14.63;4.13;;;17.60;99.90;;;;;;4974490;28;20556;-79
2022/06/10 08:22:48;;;;;;;15.63;3.60;;;17.60;99.90;;;;;;4975678;28;20603;-79
2022/06/10 08:25:15;;;;;;;10.57;3.47;;;17.60;99.90;;;;;;4974923;28;20175;-79
2022/06/10 08:27:41;;;;;;;10.97;3.93;;;17.50;99.90;;;;;;4977696;28;20184;-79
2022/06/10 08:30:12;;;;;;;16.43;3.63;;;17.40;99.90;;;;;;4973796;28;20211;-78
2022/06/10 08:32:37;;;;;;;12.47;3.80;;;17.40;99.90;;;;;;4972901;28;20199;-79
2022/06/10 08:35:04;;;;;;;14.07;3.80;;;17.40;99.90;;;;;;4973086;28;20176;-78
2022/06/10 08:37:30;;;;;;;16.10;4.27;;;17.40;99.90;;;;;;4977654;28;20168;-79
2022/06/10 08:39:56;;;;;;;15.23;4.00;;;17.50;99.90;;;;;;4979324;28;20222;-79
2022/06/10 08:42:36;;;;;;;14.33;4.07;;;17.40;99.90;;;;;;4981848;28;20801;-79
2022/06/10 08:45:43;;;;;;;10.57;3.33;;;17.70;99.90;;;;;;4984625;28;20171;-79
2022/06/10 08:48:17;;;;;;;13.77;3.30;;;18.10;99.90;;;;;;4970985;28;20184;-79
2022/06/10 08:51:04;;;;;;;11.23;3.33;;;18.00;99.90;;;;;;4981124;28;20248;-79
2022/06/10 08:53:59;;;;;;;11.33;3.43;;;18.20;99.90;;;;;;4993346;28;20171;-79
2022/06/10 08:56:34;;;;;;;14.37;2.83;;;18.20;99.90;;;;;;4992769;28;20219;-79
2022/06/10 08:59:13;;;;;;;19.60;3.60;;;18.10;99.90;;;;;;4992041;28;20186;-79
2022/06/10 09:02:05;;;;;;;14.53;3.13;;;18.80;99.90;;;;;;4992791;28;20199;-80
2022/06/10 09:04:54;;;;;;;18.87;3.90;;;19.00;99.90;;;;;;4986613;28;20194;-80
2022/06/10 09:07:23;;;;;;;14.17;3.47;;;18.80;99.90;;;;;;4995676;28;20179;-80
2022/06/10 09:09:49;;;;;;;13.03;4.00;;;17.90;99.90;;;;;;4994790;28;20203;-78
2022/06/10 09:12:26;;;;;;;13.23;3.77;;;18.00;99.90;;;;;;4996568;28;20218;-79
2022/06/10 09:14:58;;;;;;;11.70;3.17;;;17.60;99.90;;;;;;5003086;23;20492;-91
2022/06/10 09:17:33;;;;;;;14.32;3.78;;;17.60;99.90;;;;;;5028851;28;20413;-90
2022/06/10 09:20:31;;;;;;;12.73;3.23;;;17.70;99.90;;;;;;5032198;28;20655;-90
2022/06/10 09:23:25;;;;;;;14.17;3.40;;;17.50;99.90;;;;;;5030922;28;20176;-90
2022/06/10 09:25:56;;;;;;;12.90;2.97;;;17.70;99.90;;;;;;5011636;28;20196;-90
2022/06/10 09:28:22;;;;;;;9.73;3.43;;;17.90;99.90;;;;;;5015069;23;20268;-79
2022/06/10 09:31:01;;;;;;;9.73;3.20;;;17.90;99.90;;;;;;5014567;28;20576;-80
2022/06/10 09:33:32;;;;;;;11.77;3.60;;;17.90;99.90;;;;;;4976032;28;20872;-79
2022/06/10 09:36:01;;;;;;;11.80;3.43;;;17.80;99.90;;;;;;4983237;28;20523;-80
2022/06/10 09:39:04;;;;;;;13.97;3.70;;;17.90;99.90;;;;;;4995889;28;20755;-82
2022/06/10 09:42:08;;;;;;;11.03;3.33;;;18.30;99.90;;;;;;4995695;28;20198;-78
2022/06/10 09:44:44;;;;;;;11.37;3.23;;;18.40;99.90;;;;;;4972588;28;20214;-80
2022/06/10 09:47:37;;;;;;;9.37;3.00;;;18.40;99.90;;;;;;4995950;28;20266;-80
2022/06/10 09:50:18;;;;;;;9.33;2.80;;;18.60;99.90;;;;;;4995689;28;20513;-81
2022/06/10 09:53:45;;;;;;;15.13;3.13;;;18.80;99.90;;;;;;4996146;28;20314;-79
2022/06/10 09:56:29;;;;;;;15.37;3.53;;;19.40;99.90;;;;;;4931596;29;20720;-80
2022/06/10 09:59:15;;;;;;;15.17;3.20;;;19.30;99.90;;;;;;4939869;29;20752;-80
2022/06/10 10:02:09;;;;;;;5.63;2.83;;;20.70;99.90;;;;;;4988881;28;20195;-80
2022/06/10 10:04:54;;;;;;;11.73;2.78;;;21.40;99.90;;;;;;4997812;28;20186;-80
2022/06/10 10:07:40;;;;;;;10.55;2.90;;;21.10;99.90;;;;;;4995964;28;20175;-82
2022/06/10 10:10:20;;;;;;;5.35;2.50;;;22.20;99.90;;;;;;5012627;23;20223;-81
2022/06/10 10:13:00;;;;;;;6.72;2.55;;;21.50;99.90;;;;;;5030607;28;20194;-81
2022/06/10 10:15:33;;;;;;;7.95;2.65;;;21.50;99.90;;;;;;5029210;28;20274;-82
2022/06/10 10:18:13;;;;;;;8.80;2.53;;;21.60;99.90;;;;;;5029392;28;20543;-82
2022/06/10 10:20:54;;;;;;;7.68;2.40;;;22.10;99.90;;;;;;5028989;28;20183;-83
2022/06/10 10:23:32;;;;;;;8.73;2.88;;;22.50;99.90;;;;;;5028589;28;20804;-80
2022/06/10 10:25:58;;;;;;;8.27;2.60;;;22.30;99.90;;;;;;5030576;28;20236;-82
2022/06/10 10:28:29;;;;;;;8.48;3.63;;;22.10;99.90;;;;;;5030526;28;20218;-83
2022/06/10 10:31:04;;;;;;;9.20;2.47;;;22.30;99.90;;;;;;5029144;28;20250;-82
2022/06/10 10:33:29;;;;;;;7.43;2.97;;;22.30;99.90;;;;;;5027688;28;20174;-81
2022/06/10 10:35:57;;;;;;;5.93;2.80;;;22.20;99.90;;;;;;5026979;28;20539;-83
2022/06/10 10:38:40;;;;;;;9.43;3.22;;;22.40;99.90;;;;;;5026766;28;20179;-77
2022/06/10 10:41:34;;;;;;;10.30;3.17;;;22.10;99.90;;;;;;5026819;28;20697;-77
2022/06/10 10:44:21;;;;;;;9.35;2.97;;;21.80;99.90;;;;;;5026598;28;20179;-80
2022/06/10 10:47:13;;;;;;;7.40;3.20;;;21.60;99.90;;;;;;5028119;28;20176;-77
2022/06/10 10:49:53;;;;;;;4.13;2.65;;;21.80;99.90;;;;;;5027884;28;20172;-76
2022/06/10 10:52:37;;;;;;;7.32;2.92;;;21.20;99.90;;;;;;5026743;28;20234;-78
2022/06/10 10:55:18;;;;;;;8.57;3.22;;;21.20;99.90;;;;;;5027136;28;20586;-80
2022/06/10 10:58:06;;;;;;;11.13;2.90;;;21.00;99.90;;;;;;5026928;28;20171;-78
2022/06/10 11:00:36;;;;;;;11.02;2.80;;;21.40;99.90;;;;;;5027059;28;20206;-78
2022/06/10 11:03:03;;;;;;;7.10;2.80;;;21.60;99.90;;;;;;5026603;28;20199;-79
2022/06/10 11:05:32;;;;;;;9.38;2.90;;;21.80;99.90;;;;;;5027289;28;20191;-80
2022/06/10 11:08:06;;;;;;;7.55;2.97;;;21.70;99.90;;;;;;5027593;28;20612;-79
2022/06/10 11:10:37;;;;;;;11.10;2.25;;;21.40;99.90;;;;;;5026668;28;20658;-77
2022/06/10 11:13:06;;;;;;;5.45;2.45;;;21.50;99.90;;;;;;5026017;28;20245;-79
2022/06/10 11:15:34;;;;;;;6.30;2.10;;;22.10;99.90;;;;;;5026965;28;20171;-80
2022/06/10 11:18:01;;;;;;;9.02;2.38;;;22.20;99.90;;;;;;5026440;28;20190;-78
2022/06/10 11:20:27;;;;;;;7.75;2.38;;;22.20;99.90;;;;;;5026518;28;20198;-78
2022/06/10 11:23:18;;;;;;;7.78;2.22;;;22.30;99.90;;;;;;5025492;28;20652;-81
2022/06/10 11:25:46;;;;;;;7.57;2.72;;;22.30;99.90;;;;;;5027159;28;20203;-80
2022/06/10 11:28:22;;;;;;;8.73;2.60;;;22.40;99.90;;;;;;5024891;28;20180;-80
2022/06/10 11:30:49;;;;;;;11.35;2.33;;;22.40;99.90;;;;;;5025969;28;20687;-79
2022/06/10 11:33:21;;;;;;;6.22;2.25;;;22.70;99.90;;;;;;5026373;28;20170;-81
2022/06/10 11:36:08;;;;;;;4.10;1.60;;;22.60;99.90;;;;;;5026693;28;20175;-82
2022/06/10 11:38:37;;;;;;;8.10;2.08;;;22.50;99.90;;;;;;5026485;28;20175;-79
2022/06/10 11:41:23;;;;;;;8.98;2.35;;;23.10;99.90;;;;;;5025690;28;20186;-80
2022/06/10 11:44:16;;;;;;;10.00;2.20;;;23.00;99.90;;;;;;4992888;28;20198;-80
2022/06/10 11:46:55;;;;;;;7.82;2.20;;;22.70;99.90;;;;;;5026067;28;20179;-78
2022/06/10 11:49:43;;;;;;;7.93;1.70;;;22.70;99.90;;;;;;5026670;28;20202;-79
2022/06/10 11:52:24;;;;;;;12.55;2.63;;;22.70;99.90;;;;;;5026394;28;20688;-79
2022/06/10 11:54:59;;;;;;;9.48;1.70;;;22.90;99.90;;;;;;5026493;28;20182;-78
2022/06/10 12:00:44;;;;;;;9.18;2.00;;;22.70;99.90;;;;;;4994941;28;20543;-79
2022/06/10 12:03:31;;;;;;;7.28;2.10;;;22.70;99.90;;;;;;5026401;28;20234;-79
2022/06/10 12:06:22;;;;;;;7.32;2.22;;;22.30;99.90;;;;;;5025906;28;20540;-77
2022/06/10 12:08:55;;;;;;;6.35;1.70;;;22.30;99.90;;;;;;5026018;28;20210;-78
2022/06/10 12:11:50;;;;;;;6.13;1.92;;;22.40;99.90;;;;;;5025172;28;20210;-78
2022/06/10 12:14:54;;;;;;;10.30;2.10;;;22.50;99.90;;;;;;5025967;28;20167;-79
2022/06/10 12:17:37;;;;;;;9.10;1.77;;;22.60;99.90;;;;;;5026524;28;20167;-80
2022/06/10 12:20:11;;;;;;;8.70;1.73;;;23.20;99.90;;;;;;5026434;28;20167;-78
2022/06/10 12:22:37;;;;;;;3.50;1.40;;;23.80;99.90;;;;;;4993432;28;20190;-82
2022/06/10 12:25:14;;;;;;;4.85;1.67;;;23.40;99.90;;;;;;5025428;28;20562;-78
2022/06/10 12:27:46;;;;;;;5.03;1.65;;;23.40;99.90;;;;;;5025207;28;20524;-78
2022/06/10 12:30:41;;;;;;;4.90;1.67;;;23.10;99.90;;;;;;5024919;28;20222;-79
2022/06/10 12:33:39;;;;;;;5.78;1.67;;;23.10;99.90;;;;;;4985358;28;20235;-80
2022/06/10 12:36:09;;;;;;;4.30;1.67;;;23.70;99.90;;;;;;4988558;28;20223;-79
2022/06/10 12:38:40;;;;;;;4.97;1.60;;;23.40;99.90;;;;;;5026058;28;20184;-79
2022/06/10 12:41:20;;;;;;;6.10;2.03;;;23.40;99.90;;;;;;5028391;28;20195;-79
2022/06/10 12:43:53;;;;;;;7.78;1.92;;;22.60;99.90;;;;;;5029195;28;20194;-79
2022/06/10 12:46:31;;;;;;;5.40;1.75;;;22.60;99.90;;;;;;5028786;28;20172;-79
2022/06/10 12:48:56;;;;;;;11.48;1.90;;;22.50;99.90;;;;;;5029383;28;20202;-78
2022/06/10 12:51:31;;;;;;;6.82;2.10;;;22.60;99.90;;;;;;5028256;28;20206;-80
2022/06/10 12:54:18;;;;;;;6.72;1.65;;;23.20;99.90;;;;;;5028492;28;20206;-79
2022/06/10 12:56:43;;;;;;;6.05;1.63;;;23.50;99.90;;;;;;5028956;28;20178;-80
2022/06/10 12:59:11;;;;;;;8.05;1.65;;;23.50;99.90;;;;;;5028814;28;20172;-78
2022/06/10 13:01:37;;;;;;;7.03;1.70;;;23.50;99.90;;;;;;5028743;28;20665;-78
2022/06/10 13:04:19;;;;;;;4.65;1.77;;;23.50;99.90;;;;;;5028220;28;20259;-78
2022/06/10 13:06:49;;;;;;;10.50;1.65;;;23.50;99.90;;;;;;5027820;28;20179;-77
2022/06/10 13:09:18;;;;;;;7.43;1.27;;;23.50;99.90;;;;;;5027504;28;20206;-80
2022/06/10 13:11:46;;;;;;;4.10;1.42;;;23.50;99.90;;;;;;5026842;28;20211;-78
2022/06/10 13:14:33;;;;;;;6.38;1.80;;;23.40;99.90;;;;;;5028101;28;20259;-77
2022/06/10 13:16:58;;;;;;;5.97;1.80;;;23.00;99.90;;;;;;5028805;28;20776;-78
2022/06/10 13:19:55;;;;;;;4.85;1.70;;;22.80;99.90;;;;;;5028255;28;20178;-80